Time;durP1;ratioP1;P1;durP2;ratioP2;P2;SDS_P1;SDS_P2;PMS_P1;PMS_P2;Temp;Humidity;BMP_temperature;BMP_pressure;BME280_temperature;BME280_humidity;BME280_pressure;Samples;Min_cycle;Max_cycle;Signal;HPM_P1;HPM_P2
2022/06/16 00:01:36;;;;;;;4.45;3.40;;;15.90;99.90;;;;;;5112999;28;20593;-79
2022/06/16 00:04:02;;;;;;;5.32;3.53;;;15.90;99.90;;;;;;5112847;28;20329;-79
2022/06/16 00:06:28;;;;;;;5.60;3.60;;;15.90;99.90;;;;;;5112571;28;20191;-79
2022/06/16 00:08:53;;;;;;;3.33;2.97;;;15.90;99.90;;;;;;5113747;28;20225;-79
2022/06/16 00:11:22;;;;;;;5.57;3.17;;;16.00;99.90;;;;;;5113280;28;20235;-79
2022/06/16 00:13:51;;;;;;;7.78;3.80;;;16.00;99.90;;;;;;5113427;28;20200;-79
2022/06/16 00:16:16;;;;;;;4.05;3.40;;;16.00;99.90;;;;;;5112499;28;20204;-79
2022/06/16 00:18:42;;;;;;;3.50;3.20;;;16.00;99.90;;;;;;5112547;28;20176;-79
2022/06/16 00:21:08;;;;;;;3.72;3.13;;;16.00;99.90;;;;;;5113082;28;20244;-79
2022/06/16 00:23:35;;;;;;;4.95;3.33;;;15.80;99.90;;;;;;5112380;28;20266;-79
2022/06/16 00:26:00;;;;;;;5.25;3.72;;;15.70;99.90;;;;;;5114490;28;20203;-79
2022/06/16 00:28:26;;;;;;;6.93;3.83;;;15.70;99.90;;;;;;5112808;28;20173;-78
2022/06/16 00:31:04;;;;;;;3.88;3.42;;;15.50;99.90;;;;;;5112744;28;20168;-79
2022/06/16 00:33:30;;;;;;;4.85;3.67;;;15.50;99.90;;;;;;5112926;28;20175;-79
2022/06/16 00:35:55;;;;;;;10.90;3.78;;;15.60;99.90;;;;;;5112736;28;20300;-78
2022/06/16 00:38:22;;;;;;;5.57;3.72;;;15.40;99.90;;;;;;5113146;28;20197;-78
2022/06/16 00:40:48;;;;;;;5.70;3.90;;;15.40;99.90;;;;;;5112310;28;20290;-78
2022/06/16 00:43:14;;;;;;;5.05;3.78;;;15.40;99.90;;;;;;5112186;28;20792;-78
2022/06/16 00:45:48;;;;;;;3.95;3.65;;;15.40;99.90;;;;;;5112485;28;20196;-79
2022/06/16 00:48:27;;;;;;;4.63;3.90;;;15.40;99.90;;;;;;5113142;28;20176;-78
2022/06/16 00:51:17;;;;;;;6.78;4.00;;;15.40;99.90;;;;;;5112599;28;20160;-78
2022/06/16 00:53:44;;;;;;;4.30;3.90;;;15.30;99.90;;;;;;5113465;28;20656;-78
2022/06/16 00:56:13;;;;;;;6.13;3.83;;;15.10;99.90;;;;;;5114176;28;20192;-78
2022/06/16 00:58:41;;;;;;;4.30;4.00;;;15.20;99.90;;;;;;5112112;28;20646;-78
2022/06/16 01:01:09;;;;;;;7.57;3.58;;;15.20;99.90;;;;;;5112377;28;20635;-79
2022/06/16 01:06:25;;;;;;;4.28;3.78;;;15.10;99.90;;;;;;5113563;28;20615;-78
2022/06/16 01:08:56;;;;;;;8.25;3.58;;;15.10;99.90;;;;;;5113302;28;20164;-78
2022/06/16 01:14:34;;;;;;;5.10;3.85;;;15.00;99.90;;;;;;5117507;28;20168;-79
2022/06/16 01:17:06;;;;;;;4.25;3.35;;;15.00;99.90;;;;;;5115695;28;20175;-79
2022/06/16 01:19:40;;;;;;;5.35;3.80;;;14.90;99.90;;;;;;5116404;28;20168;-79
2022/06/16 01:22:23;;;;;;;5.30;3.80;;;14.70;99.90;;;;;;5116705;28;20201;-78
2022/06/16 01:24:58;;;;;;;8.80;3.97;;;14.70;99.90;;;;;;5115889;28;20250;-78
2022/06/16 01:27:54;;;;;;;5.15;3.70;;;14.70;99.90;;;;;;5115383;28;20698;-78
2022/06/16 01:30:27;;;;;;;9.38;3.90;;;14.70;99.90;;;;;;5116084;28;20229;-78
2022/06/16 01:33:13;;;;;;;3.92;3.55;;;14.60;99.90;;;;;;5115904;28;20214;-78
2022/06/16 01:35:38;;;;;;;4.45;3.97;;;14.60;99.90;;;;;;5115013;28;20211;-78
2022/06/16 01:38:12;;;;;;;5.68;4.32;;;14.50;99.90;;;;;;5116071;28;20184;-78
2022/06/16 01:40:49;;;;;;;4.25;3.85;;;14.60;99.90;;;;;;5115212;28;20234;-78
2022/06/16 01:43:27;;;;;;;3.97;3.60;;;14.40;99.90;;;;;;5116586;28;20195;-78
2022/06/16 01:45:59;;;;;;;4.60;4.15;;;14.30;99.90;;;;;;5115808;28;20523;-78
2022/06/16 01:48:27;;;;;;;5.32;4.13;;;14.30;99.90;;;;;;5115862;28;20195;-78
2022/06/16 01:51:19;;;;;;;4.55;4.15;;;14.30;99.90;;;;;;5115737;28;20199;-78
2022/06/16 01:54:00;;;;;;;6.47;3.75;;;14.20;99.90;;;;;;5114959;28;20180;-78
2022/06/16 01:56:50;;;;;;;4.80;4.30;;;14.20;99.90;;;;;;5114824;28;20283;-78
2022/06/16 01:59:20;;;;;;;4.32;3.92;;;14.20;99.90;;;;;;5114738;28;20180;-78
2022/06/16 02:01:51;;;;;;;7.30;4.18;;;14.20;99.90;;;;;;5114685;28;20526;-78
2022/06/16 02:04:25;;;;;;;4.22;3.83;;;14.20;99.90;;;;;;5114540;28;20294;-78
2022/06/16 02:06:55;;;;;;;5.53;4.28;;;14.30;99.90;;;;;;5115184;28;20204;-78
2022/06/16 02:09:27;;;;;;;4.45;4.05;;;14.40;99.90;;;;;;5114548;28;20168;-78
2022/06/16 02:11:55;;;;;;;6.13;4.68;;;14.20;99.90;;;;;;5115430;28;20190;-78
2022/06/16 02:14:45;;;;;;;4.53;4.13;;;14.10;99.90;;;;;;5114502;28;20181;-78
2022/06/16 02:17:12;;;;;;;5.18;3.92;;;14.20;99.90;;;;;;5114971;28;20229;-78
2022/06/16 02:19:38;;;;;;;4.63;4.00;;;14.20;99.90;;;;;;5113874;28;20279;-78
2022/06/16 02:22:04;;;;;;;7.10;4.63;;;14.20;99.90;;;;;;5114289;28;20233;-78
2022/06/16 02:24:30;;;;;;;5.25;4.18;;;14.20;99.90;;;;;;5115294;28;20203;-78
2022/06/16 02:26:58;;;;;;;7.20;4.50;;;14.30;99.90;;;;;;5114219;28;20259;-78
2022/06/16 02:29:38;;;;;;;4.50;3.83;;;14.30;99.90;;;;;;5115426;28;20280;-78
2022/06/16 02:32:20;;;;;;;6.30;4.22;;;14.30;99.90;;;;;;5113978;28;20631;-78
2022/06/16 02:35:27;;;;;;;5.63;4.40;;;14.40;99.90;;;;;;5114143;28;20207;-78
2022/06/16 02:38:42;;;;;;;4.63;4.22;;;14.30;99.90;;;;;;5075977;28;20180;-78
2022/06/16 02:41:26;;;;;;;5.35;3.75;;;14.10;99.90;;;;;;5032891;28;20190;-78
2022/06/16 02:43:55;;;;;;;4.65;4.18;;;14.00;99.90;;;;;;5107642;28;20701;-78
2022/06/16 02:46:55;;;;;;;4.28;3.92;;;13.90;99.90;;;;;;5114954;28;20188;-78
2022/06/16 02:49:32;;;;;;;6.10;4.03;;;13.90;99.90;;;;;;5114380;28;20256;-78
2022/06/16 02:52:14;;;;;;;5.78;4.38;;;14.00;99.90;;;;;;5113768;28;20160;-78
2022/06/16 02:55:11;;;;;;;7.35;4.70;;;14.00;99.90;;;;;;5113636;28;20302;-78
2022/06/16 02:57:46;;;;;;;6.00;4.25;;;13.90;99.90;;;;;;5098396;28;20245;-78
2022/06/16 03:00:15;;;;;;;6.03;4.43;;;13.90;99.90;;;;;;5113919;28;20172;-78
2022/06/16 03:02:42;;;;;;;4.63;4.13;;;14.00;99.90;;;;;;5113579;28;20179;-78
2022/06/16 03:05:09;;;;;;;4.82;4.32;;;14.10;99.90;;;;;;5113519;28;20195;-78
2022/06/16 03:07:36;;;;;;;4.47;4.00;;;14.00;99.90;;;;;;5114258;28;20201;-78
2022/06/16 03:10:03;;;;;;;5.35;4.28;;;13.80;99.90;;;;;;5113479;28;20176;-78
2022/06/16 03:12:29;;;;;;;7.95;4.60;;;13.90;99.90;;;;;;5113382;28;20182;-78
2022/06/16 03:14:55;;;;;;;8.80;4.65;;;13.90;99.90;;;;;;5113289;28;20558;-78
2022/06/16 03:17:20;;;;;;;5.00;4.22;;;13.90;99.90;;;;;;5113697;28;20184;-78
2022/06/16 03:19:46;;;;;;;8.23;4.47;;;13.90;99.90;;;;;;5113858;28;20190;-78
2022/06/16 03:22:12;;;;;;;5.78;4.40;;;13.90;99.90;;;;;;5114386;28;20168;-78
2022/06/16 03:24:38;;;;;;;4.93;4.47;;;13.60;99.90;;;;;;5114335;28;20230;-78
2022/06/16 03:27:05;;;;;;;6.80;4.88;;;13.60;99.90;;;;;;5114284;28;20211;-78
2022/06/16 03:29:31;;;;;;;4.97;4.25;;;13.50;99.90;;;;;;5113306;28;20168;-78
2022/06/16 03:31:56;;;;;;;5.13;4.50;;;13.60;99.90;;;;;;5112253;28;20271;-78
2022/06/16 03:34:23;;;;;;;5.80;4.53;;;13.60;99.90;;;;;;5113145;28;20176;-78
2022/06/16 03:36:49;;;;;;;7.35;4.78;;;13.50;99.90;;;;;;5114161;28;20198;-78
2022/06/16 03:39:15;;;;;;;7.70;5.00;;;13.50;99.90;;;;;;5113530;28;20215;-78
2022/06/16 03:41:41;;;;;;;6.57;4.97;;;13.40;99.90;;;;;;5114179;28;20176;-78
2022/06/16 03:44:07;;;;;;;8.07;4.47;;;13.50;99.90;;;;;;5112817;28;20203;-78
2022/06/16 03:46:33;;;;;;;6.80;4.03;;;13.60;99.90;;;;;;5113080;28;20221;-78
2022/06/16 03:48:58;;;;;;;9.02;4.53;;;13.70;99.90;;;;;;5112788;28;20672;-78
2022/06/16 03:51:24;;;;;;;5.18;4.30;;;13.80;99.90;;;;;;5113058;28;20206;-78
2022/06/16 03:53:50;;;;;;;9.57;4.40;;;13.80;99.90;;;;;;5112707;28;20191;-78
2022/06/16 03:56:16;;;;;;;6.85;4.60;;;14.00;99.90;;;;;;5112642;28;20199;-78
2022/06/16 03:58:41;;;;;;;4.82;4.32;;;14.10;99.90;;;;;;5112937;28;20176;-78
2022/06/16 04:01:07;;;;;;;7.18;4.15;;;14.30;99.90;;;;;;5112927;28;20171;-78
2022/06/16 04:06:18;;;;;;;10.20;4.32;;;14.50;99.90;;;;;;5114222;28;20202;-78
2022/06/16 04:08:43;;;;;;;4.47;4.13;;;14.70;99.90;;;;;;5113483;28;20179;-78
2022/06/16 04:11:28;;;;;;;5.78;4.18;;;14.80;99.90;;;;;;5114086;28;20168;-78
2022/06/16 04:14:00;;;;;;;5.63;4.40;;;14.90;99.90;;;;;;5112656;28;20172;-78
2022/06/16 04:16:32;;;;;;;7.15;4.38;;;15.00;99.90;;;;;;5113305;28;20200;-78
2022/06/16 04:18:58;;;;;;;8.60;4.53;;;15.00;99.90;;;;;;5113190;28;20172;-78
